Time;durP1;ratioP1;P1;durP2;ratioP2;P2;SDS_P1;SDS_P2;PMS_P1;PMS_P2;Temp;Humidity;BMP_temperature;BMP_pressure;BME280_temperature;BME280_humidity;BME280_pressure;Samples;Min_cycle;Max_cycle;Signal;HPM_P1;HPM_P2
2022/08/21 00:02:23;;;;;;;2.42;0.47;;;19.60;82.60;;;;;;5031451;28;20584;-81
2022/08/21 00:04:50;;;;;;;0.50;0.50;;;;;;;;;;5031677;28;20025;-81
2022/08/21 00:07:16;;;;;;;0.65;0.60;;;;;;;;;;5031207;28;20022;-81
2022/08/21 00:09:42;;;;;;;1.67;0.85;;;;;;;;;;5031849;28;20053;-81
2022/08/21 00:12:08;;;;;;;0.90;0.70;;;;;;;;;;5031536;28;20568;-80
2022/08/21 00:14:34;;;;;;;4.70;0.50;;;;;;;;;;5031300;28;20788;-81
2022/08/21 00:17:00;;;;;;;1.08;0.60;;;18.90;88.40;;;;;;5031354;28;20721;-81
2022/08/21 00:19:27;;;;;;;0.45;0.32;;;;;;;;;;5031318;28;20497;-81
2022/08/21 00:21:54;;;;;;;0.80;0.40;;;19.00;86.70;;;;;;5031201;28;20021;-81
2022/08/21 00:24:22;;;;;;;0.77;0.57;;;19.10;86.10;;;;;;5031439;28;20810;-81
2022/08/21 00:26:48;;;;;;;;;;;19.20;85.30;;;;;;5013630;28;20344;-81
2022/08/21 00:29:14;;;;;;;3.42;0.70;;;;;;;;;;5031407;28;19951;-81
2022/08/21 00:31:40;;;;;;;5.30;0.90;;;;;;;;;;5030088;28;20028;-81
2022/08/21 00:34:07;;;;;;;0.63;0.50;;;;;;;;;;5031312;28;20121;-81
2022/08/21 00:36:33;;;;;;;0.88;0.55;;;;;;;;;;5030860;28;20009;-81
2022/08/21 00:38:59;;;;;;;1.25;0.60;;;;;;;;;;5031117;28;20060;-81
2022/08/21 00:41:26;;;;;;;0.60;0.50;;;;;;;;;;5013052;28;20021;-81
2022/08/21 00:43:53;;;;;;;1.60;0.52;;;;;;;;;;5030912;28;20099;-80
2022/08/21 00:46:19;;;;;;;3.38;0.60;;;;;;;;;;5031097;28;20297;-81
2022/08/21 00:48:45;;;;;;;1.35;0.47;;;;;;;;;;5030944;28;20056;-81
2022/08/21 00:51:18;;;;;;;1.27;0.98;;;18.80;87.60;;;;;;5030044;28;20021;-81
2022/08/21 00:53:45;;;;;;;0.45;0.40;;;;;;;;;;5031126;28;20131;-80
2022/08/21 00:56:12;;;;;;;0.57;0.50;;;;;;;;;;5030420;28;20021;-81
2022/08/21 00:58:39;;;;;;;1.38;0.77;;;;;;;;;;5030851;28;20045;-81
2022/08/21 01:01:07;;;;;;;6.10;0.70;;;19.70;82.40;;;;;;5030469;28;20072;-81
2022/08/21 01:03:34;;;;;;;0.60;0.50;;;19.40;83.60;;;;;;5030523;28;20040;-81
2022/08/21 01:06:00;;;;;;;0.63;0.55;;;;;;;;;;5030340;28;20055;-81
2022/08/21 01:08:27;;;;;;;1.25;0.80;;;;;;;;;;5030156;28;20033;-81
2022/08/21 01:10:55;;;;;;;1.07;0.77;;;;;;;;;;5030519;28;20144;-82
2022/08/21 01:13:23;;;;;;;5.18;0.80;;;;;;;;;;5030075;28;20521;-82
2022/08/21 01:15:52;;;;;;;3.10;0.70;;;19.30;83.90;;;;;;5030571;28;20048;-81
2022/08/21 01:18:18;;;;;;;2.63;0.55;;;;;;;;;;5030165;28;20498;-81
2022/08/21 01:20:50;;;;;;;3.63;0.50;;;;;;;;;;5030584;28;20021;-81
2022/08/21 01:23:16;;;;;;;0.75;0.50;;;;;;;;;;5030254;28;20499;-81
2022/08/21 01:25:42;;;;;;;1.50;0.55;;;;;;;;;;5012172;28;20080;-81
2022/08/21 01:28:13;;;;;;;0.65;0.60;;;19.30;83.70;;;;;;5012308;28;20033;-81
2022/08/21 01:30:41;;;;;;;1.15;0.55;;;;;;;;;;5030380;28;20119;-81
2022/08/21 01:33:07;;;;;;;0.65;0.63;;;;;;;;;;5028658;28;20026;-81
2022/08/21 01:35:33;;;;;;;0.65;0.65;;;;;;;;;;5030111;28;20026;-81
2022/08/21 01:37:59;;;;;;;1.00;0.65;;;;;;;;;;5029814;28;20041;-81
2022/08/21 01:40:25;;;;;;;0.77;0.60;;;;;;;;;;5029999;28;20434;-81
2022/08/21 01:42:51;;;;;;;1.25;0.85;;;;;;;;;;5029907;28;20033;-81
2022/08/21 01:45:17;;;;;;;5.10;0.75;;;;;;;;;;5029813;28;20390;-80
2022/08/21 01:47:46;;;;;;;1.73;0.82;;;;;;;;;;5029815;28;20490;-81
2022/08/21 01:50:13;;;;;;;2.88;0.47;;;;;;;;;;5030086;28;20049;-81
2022/08/21 01:52:39;;;;;;;1.20;0.93;;;;;;;;;;5030065;28;20048;-81
2022/08/21 01:55:08;;;;;;;1.83;0.90;;;18.70;86.40;;;;;;5029823;28;20021;-81
2022/08/21 01:57:34;;;;;;;1.60;0.50;;;;;;;;;;5029604;28;20041;-81
2022/08/21 02:00:00;;;;;;;1.38;1.10;;;;;;;;;;5029929;28;20051;-81
2022/08/21 02:02:26;;;;;;;0.65;0.50;;;;;;;;;;5028942;28;20434;-81
2022/08/21 02:04:52;;;;;;;7.45;1.05;;;;;;;;;;5029894;28;20026;-80
2022/08/21 02:07:18;;;;;;;0.50;0.45;;;;;;;;;;5029381;28;20538;-82
2022/08/21 02:09:44;;;;;;;1.52;0.77;;;;;;;;;;5029507;28;20571;-81
2022/08/21 02:12:11;;;;;;;0.70;0.50;;;;;;;;;;5029916;28;20028;-81
2022/08/21 02:14:37;;;;;;;1.70;0.82;;;;;;;;;;5029584;28;20031;-81
2022/08/21 02:17:03;;;;;;;3.65;1.05;;;;;;;;;;5029242;28;20630;-81
2022/08/21 02:19:29;;;;;;;1.73;0.60;;;;;;;;;;5029563;28;20502;-81
2022/08/21 02:21:55;;;;;;;4.72;1.00;;;;;;;;;;5029193;28;20033;-81
2022/08/21 02:24:21;;;;;;;0.82;0.60;;;;;;;;;;5029616;28;20047;-81
2022/08/21 02:26:47;;;;;;;1.88;0.60;;;;;;;;;;5029298;28;20037;-81
2022/08/21 02:29:14;;;;;;;1.45;0.82;;;;;;;;;;5028914;28;20049;-80
2022/08/21 02:31:39;;;;;;;1.77;0.65;;;;;;;;;;5027964;28;20540;-81
2022/08/21 02:34:06;;;;;;;0.38;0.38;;;;;;;;;;5029331;28;20104;-82
2022/08/21 02:36:32;;;;;;;1.45;0.70;;;;;;;;;;5029125;28;20025;-81
2022/08/21 02:38:58;;;;;;;2.05;1.15;;;;;;;;;;5029327;28;20155;-81
2022/08/21 02:41:24;;;;;;;1.13;0.70;;;;;;;;;;5029181;28;20553;-81
2022/08/21 02:43:50;;;;;;;1.20;0.68;;;;;;;;;;5027601;28;20057;-81
2022/08/21 02:46:18;;;;;;;0.52;0.52;;;;;;;;;;5028551;28;20136;-81
2022/08/21 02:48:44;;;;;;;0.82;0.70;;;;;;;;;;5029394;28;20040;-81
2022/08/21 02:51:12;;;;;;;0.65;0.65;;;;;;;;;;5028984;28;20029;-81
2022/08/21 02:53:38;;;;;;;0.90;0.40;;;;;;;;;;5017090;28;20053;-81
2022/08/21 02:56:07;;;;;;;3.45;0.70;;;17.90;89.20;;;;;;5026783;28;20017;-82
2022/08/21 02:58:35;;;;;;;2.03;0.75;;;;;;;;;;5026229;28;20065;-81
2022/08/21 03:01:01;;;;;;;1.90;0.50;;;;;;;;;;5028831;28;20107;-81
2022/08/21 03:03:28;;;;;;;0.93;0.82;;;18.70;85.40;;;;;;5020300;28;20027;-81
2022/08/21 03:05:55;;;;;;;2.03;0.82;;;;;;;;;;5023578;28;20636;-80
2022/08/21 03:08:21;;;;;;;0.85;0.82;;;;;;;;;;5023942;28;20029;-81
2022/08/21 03:10:49;;;;;;;8.82;1.08;;;;;;;;;;5028501;28;20107;-80
2022/08/21 03:13:15;;;;;;;1.17;0.52;;;;;;;;;;5010004;28;20021;-81
2022/08/21 03:15:41;;;;;;;3.75;2.00;;;;;;;;;;5019968;28;20044;-80
2022/08/21 03:18:08;;;;;;;0.80;0.68;;;;;;;;;;5028362;28;20413;-80
2022/08/21 03:20:35;;;;;;;2.20;0.70;;;18.40;85.00;;;;;;5027063;28;20034;-81
2022/08/21 03:23:03;;;;;;;2.85;0.80;;;;;;;;;;5028527;28;20041;-80
2022/08/21 03:25:33;;;;;;;1.02;0.93;;;;;;;;;;5028484;28;20013;-80
2022/08/21 03:28:00;;;;;;;2.35;0.73;;;;;;;;;;5028076;28;20667;-80
2022/08/21 03:30:26;;;;;;;1.17;0.82;;;;;;;;;;5028048;28;20039;-81
2022/08/21 03:32:52;;;;;;;1.95;0.90;;;;;;;;;;5018523;28;20053;-81
2022/08/21 03:35:19;;;;;;;1.77;0.80;;;;;;;;;;5028425;28;20059;-80
2022/08/21 03:37:45;;;;;;;1.25;0.73;;;18.80;83.20;;;;;;5028152;28;20494;-80
2022/08/21 03:40:12;;;;;;;3.70;0.70;;;;;;;;;;5028285;28;20053;-80
2022/08/21 03:42:38;;;;;;;2.92;0.90;;;;;;;;;;5028153;28;20030;-81
2022/08/21 03:45:05;;;;;;;1.40;0.80;;;;;;;;;;5028604;28;20144;-81
2022/08/21 03:47:31;;;;;;;3.42;0.90;;;;;;;;;;5028201;28;20037;-81
2022/08/21 03:49:58;;;;;;;3.95;0.75;;;;;;;;;;5028238;28;20083;-81
2022/08/21 03:52:24;;;;;;;1.10;0.70;;;;;;;;;;5028209;28;20034;-81
2022/08/21 03:54:50;;;;;;;0.88;0.68;;;;;;;;;;5028074;28;20543;-81
2022/08/21 03:57:17;;;;;;;1.05;0.82;;;;;;;;;;5027464;28;20061;-81
2022/08/21 03:59:43;;;;;;;0.82;0.82;;;;;;;;;;5028398;28;20022;-81
2022/08/21 04:02:09;;;;;;;1.30;0.65;;;;;;;;;;5027760;28;20026;-81
2022/08/21 04:04:36;;;;;;;2.25;0.85;;;;;;;;;;5028362;28;20018;-81
2022/08/21 04:07:02;;;;;;;1.40;0.82;;;18.20;83.20;;;;;;5018818;28;20026;-81
2022/08/21 04:09:29;;;;;;;1.63;1.30;;;;;;;;;;5028018;28;20028;-81
2022/08/21 04:11:56;;;;;;;1.50;1.40;;;;;;;;;;5027562;28;20738;-80
2022/08/21 04:14:22;;;;;;;1.10;0.60;;;;;;;;;;5028005;28;20030;-80
2022/08/21 04:16:48;;;;;;;1.50;0.93;;;;;;;;;;5027964;28;20615;-81
2022/08/21 04:19:15;;;;;;;0.47;0.47;;;;;;;;;;5027724;28;20034;-81
2022/08/21 04:21:41;;;;;;;0.80;0.80;;;;;;;;;;5027851;28;20099;-81
2022/08/21 04:24:09;;;;;;;1.85;0.70;;;18.50;81.00;;;;;;5028541;28;20661;-80
2022/08/21 04:26:35;;;;;;;0.75;0.75;;;;;;;;;;5031074;28;20036;-81
2022/08/21 04:29:02;;;;;;;3.70;1.08;;;;;;;;;;5031509;28;20050;-81
2022/08/21 04:31:28;;;;;;;1.38;0.90;;;;;;;;;;5031125;28;20410;-81
2022/08/21 04:33:56;;;;;;;0.55;0.50;;;;;;;;;;5031331;28;20040;-81
2022/08/21 04:36:22;;;;;;;1.25;0.77;;;;;;;;;;5029703;28;20037;-80
2022/08/21 04:38:48;;;;;;;1.77;0.80;;;;;;;;;;5013618;28;20179;-81
2022/08/21 04:41:14;;;;;;;0.90;0.63;;;;;;;;;;5030771;28;20605;-81
2022/08/21 04:43:41;;;;;;;0.73;0.50;;;;;;;;;;5031314;28;21030;-81
2022/08/21 04:46:07;;;;;;;0.60;0.60;;;;;;;;;;5029737;28;20406;-82
2022/08/21 04:48:33;;;;;;;1.17;0.82;;;;;;;;;;5029387;28;20037;-80
2022/08/21 04:51:29;;;;;;;1.10;0.70;;;17.60;86.80;;;;;;5030653;28;20021;-83
2022/08/21 04:54:02;;;;;;;0.82;0.65;;;19.90;86.80;;;;;;5032953;28;20021;-82
2022/08/21 04:56:36;;;;;;;1.42;0.82;;;17.90;84.60;;;;;;5030822;28;20025;-80
2022/08/21 04:59:04;;;;;;;4.10;1.17;;;;;;;;;;5030970;28;20052;-81
2022/08/21 05:01:33;;;;;;;5.03;1.50;;;;;;;;;;5030845;28;20142;-80
2022/08/21 05:04:01;;;;;;;0.85;0.85;;;;;;;;;;5030865;28;20034;-81
2022/08/21 05:06:27;;;;;;;;;;;;;;;;;;5028885;28;20056;-81
2022/08/21 05:08:55;;;;;;;3.20;0.77;;;;;;;;;;5030440;28;20408;-81
2022/08/21 05:11:22;;;;;;;4.18;0.88;;;;;;;;;;5031004;28;20048;-81
2022/08/21 05:13:48;;;;;;;1.38;0.80;;;;;;;;;;5030369;28;20487;-82
2022/08/21 05:16:15;;;;;;;3.08;1.15;;;;;;;;;;5029214;28;20037;-81
2022/08/21 05:18:41;;;;;;;1.67;0.95;;;;;;;;;;5030074;28;20049;-81
2022/08/21 05:21:07;;;;;;;2.28;1.00;;;;;;;;;;5030750;28;20026;-81
2022/08/21 05:23:33;;;;;;;0.52;0.52;;;;;;;;;;5012423;28;20049;-81
2022/08/21 05:25:59;;;;;;;1.42;0.75;;;;;;;;;;5030329;28;20048;-81
2022/08/21 05:28:26;;;;;;;0.85;0.80;;;;;;;;;;5019508;28;20135;-81
2022/08/21 05:30:52;;;;;;;1.38;0.57;;;;;;;;;;5050160;28;20056;-82
2022/08/21 05:33:18;;;;;;;0.80;0.80;;;;;;;;;;5050340;28;20024;-81
2022/08/21 05:35:44;;;;;;;0.90;0.73;;;;;;;;;;5049059;28;20029;-81
2022/08/21 05:38:10;;;;;;;1.17;0.70;;;;;;;;;;5049611;28;20045;-81
2022/08/21 05:40:36;;;;;;;5.00;1.08;;;;;;;;;;5050170;28;20068;-81
2022/08/21 05:43:02;;;;;;;0.82;0.77;;;;;;;;;;5035440;28;20056;-81
2022/08/21 05:45:32;;;;;;;1.50;1.02;;;;;;;;;;5049986;28;20525;-81
2022/08/21 05:47:58;;;;;;;1.45;0.80;;;;;;;;;;5050065;28;20049;-81
2022/08/21 05:50:24;;;;;;;1.60;1.08;;;;;;;;;;5049849;28;20525;-81
2022/08/21 05:52:50;;;;;;;1.30;0.90;;;;;;;;;;5049176;28;20576;-81
2022/08/21 05:55:16;;;;;;;0.75;0.63;;;;;;;;;;5048580;28;20033;-82
2022/08/21 05:57:42;;;;;;;0.68;0.65;;;;;;;;;;5048050;28;20072;-81
2022/08/21 06:00:12;;;;;;;1.13;0.65;;;;;;;;;;5049962;28;20021;-81
2022/08/21 06:02:38;;;;;;;1.52;1.30;;;;;;;;;;5048911;28;20040;-82
2022/08/21 06:05:04;;;;;;;1.23;0.80;;;;;;;;;;5048991;28;20025;-81
2022/08/21 06:07:30;;;;;;;3.28;0.90;;;;;;;;;;5040364;28;20036;-81
2022/08/21 06:09:57;;;;;;;1.38;0.73;;;;;;;;;;5049608;28;20064;-81
2022/08/21 06:12:23;;;;;;;0.77;0.77;;;;;;;;;;5047854;28;20456;-81
2022/08/21 06:14:50;;;;;;;1.00;0.88;;;;;;;;;;5048543;28;20035;-81
2022/08/21 06:17:16;;;;;;;4.47;1.08;;;;;;;;;;5049177;28;20052;-81
2022/08/21 06:19:42;;;;;;;4.57;0.82;;;;;;;;;;5049093;28;20025;-80
2022/08/21 06:22:08;;;;;;;0.70;0.60;;;;;;;;;;5049309;28;20040;-82
2022/08/21 06:24:35;;;;;;;0.65;0.60;;;;;;;;;;5049371;28;20028;-81
2022/08/21 06:27:06;;;;;;;1.25;0.75;;;19.50;92.80;;;;;;5048892;28;20133;-81
2022/08/21 06:29:32;;;;;;;1.40;0.80;;;19.80;83.60;;;;;;5034668;28;20542;-82
2022/08/21 06:31:58;;;;;;;2.53;0.82;;;;;;;;;;5023316;28;20037;-81
2022/08/21 06:34:24;;;;;;;2.03;0.93;;;;;;;;;;5026246;28;20025;-82
2022/08/21 06:36:50;;;;;;;1.27;0.70;;;;;;;;;;5028833;28;20067;-81
2022/08/21 06:39:16;;;;;;;4.25;0.80;;;;;;;;;;5028844;28;20511;-82
2022/08/21 06:41:42;;;;;;;3.97;3.67;;;;;;;;;;5029039;28;20033;-81
2022/08/21 06:44:08;;;;;;;5.05;4.55;;;;;;;;;;5028781;28;20052;-81
2022/08/21 06:46:34;;;;;;;2.80;2.70;;;;;;;;;;5029188;28;20029;-81
2022/08/21 06:49:00;;;;;;;3.60;3.40;;;;;;;;;;5028729;28;20029;-82
2022/08/21 06:51:27;;;;;;;2.83;2.67;;;;;;;;;;5028548;28;20042;-81
2022/08/21 06:53:53;;;;;;;1.05;0.73;;;;;;;;;;5028533;28;20037;-82
2022/08/21 06:56:19;;;;;;;0.90;0.55;;;;;;;;;;5016336;28;20036;-81
2022/08/21 06:58:45;;;;;;;3.45;3.25;;;;;;;;;;5012664;28;20045;-81
2022/08/21 07:01:11;;;;;;;5.35;3.28;;;;;;;;;;5027598;28;20394;-81
2022/08/21 07:03:39;;;;;;;4.03;1.73;;;23.40;70.70;;;;;;5025679;28;20049;-82
2022/08/21 07:06:06;;;;;;;5.15;0.95;;;;;;;;;;5026442;28;20036;-82
2022/08/21 07:08:32;;;;;;;2.55;0.40;;;;;;;;;;5019448;28;20037;-82
2022/08/21 07:11:00;;;;;;;1.98;1.10;;;24.00;69.80;;;;;;5018960;28;20561;-82
2022/08/21 07:13:26;;;;;;;3.53;2.22;;;;;;;;;;5025371;28;20039;-82
2022/08/21 07:15:53;;;;;;;3.88;3.67;;;;;;;;;;5026484;28;20502;-81
2022/08/21 07:18:19;;;;;;;4.00;3.80;;;;;;;;;;5024506;28;20042;-81
2022/08/21 07:20:45;;;;;;;4.05;3.22;;;;;;;;;;5022645;28;20021;-82
2022/08/21 07:23:27;;;;;;;3.70;3.50;;;29.30;55.10;;;;;;5024986;28;20525;-81
2022/08/21 07:25:54;;;;;;;3.53;3.25;;;;;;;;;;5026443;28;20565;-81
2022/08/21 07:28:20;;;;;;;;;;;31.60;49.90;;;;;;5025077;28;20053;-81
2022/08/21 07:30:46;;;;;;;3.20;3.00;;;;;;;;;;5020494;28;19916;-81
2022/08/21 07:33:12;;;;;;;22.02;3.58;;;;;;;;;;5025198;28;20029;-82
2022/08/21 07:35:39;;;;;;;3.50;3.20;;;;;;;;;;5025862;28;20032;-82
2022/08/21 07:38:05;;;;;;;3.67;3.33;;;;;;;;;;5022746;28;20041;-81
2022/08/21 07:40:31;;;;;;;3.20;3.10;;;;;;;;;;5016444;28;20838;-81
2022/08/21 07:42:57;;;;;;;3.17;2.92;;;;;;;;;;5028644;28;20018;-82
2022/08/21 07:45:24;;;;;;;3.17;2.97;;;;;;;;;;5026146;28;20028;-82
2022/08/21 07:47:50;;;;;;;3.92;3.10;;;;;;;;;;5006064;28;20553;-81
2022/08/21 07:50:16;;;;;;;2.95;2.75;;;;;;;;;;5016707;28;20033;-82
2022/08/21 07:52:42;;;;;;;4.85;3.50;;;;;;;;;;5028655;28;20021;-82
2022/08/21 07:55:11;;;;;;;3.13;2.92;;;34.90;39.50;;;;;;5022500;28;20037;-81
2022/08/21 07:57:37;;;;;;;3.00;2.80;;;;;;;;;;5024929;28;20790;-81
2022/08/21 08:00:14;;;;;;;3.33;3.13;;;;;;;;;;5017968;28;20026;-83
2022/08/21 08:02:41;;;;;;;4.60;2.58;;;;;;;;;;5029314;28;20129;-82
2022/08/21 08:05:08;;;;;;;;;;;36.10;38.50;;;;;;5027774;28;20104;-82
2022/08/21 08:07:34;;;;;;;3.22;2.42;;;;;;;;;;5028222;28;19905;-80
2022/08/21 08:10:00;;;;;;;2.47;2.28;;;;;;;;;;5021713;28;20037;-81
2022/08/21 08:12:29;;;;;;;6.22;2.40;;;;;;;;;;5030226;28;20036;-81
2022/08/21 08:14:56;;;;;;;3.55;2.60;;;;;;;;;;5034595;28;20485;-81
2022/08/21 08:17:23;;;;;;;4.03;2.72;;;;;;;;;;5029774;28;20056;-81
2022/08/21 08:19:49;;;;;;;6.15;2.38;;;;;;;;;;5020235;28;20112;-81
2022/08/21 08:22:20;;;;;;;9.93;2.80;;;36.60;37.80;;;;;;5024488;28;20026;-81
2022/08/21 08:24:47;;;;;;;2.53;2.10;;;36.30;37.30;;;;;;5026874;28;20116;-81
2022/08/21 08:27:13;;;;;;;3.60;2.20;;;;;;;;;;5032472;28;20052;-81
2022/08/21 08:29:39;;;;;;;2.85;2.20;;;;;;;;;;5018726;28;20049;-81
2022/08/21 08:32:09;;;;;;;1.90;1.80;;;;;;;;;;5028711;28;20022;-83
2022/08/21 08:34:35;;;;;;;2.72;1.85;;;;;;;;;;5030012;28;20434;-82
2022/08/21 08:37:02;;;;;;;1.80;1.63;;;;;;;;;;5028382;28;20038;-81
2022/08/21 08:39:28;;;;;;;1.88;1.77;;;;;;;;;;5021472;28;20033;-80
2022/08/21 08:42:14;;;;;;;3.33;1.70;;;37.00;36.50;;;;;;5028794;28;20036;-80
2022/08/21 08:44:41;;;;;;;1.63;1.48;;;;;;;;;;5028750;28;20036;-80
2022/08/21 08:47:10;;;;;;;1.65;1.50;;;36.90;36.80;;;;;;5022891;28;20056;-80
2022/08/21 08:50:21;;;;;;;2.60;1.60;;;37.10;36.00;;;;;;5021366;28;20529;-81
2022/08/21 08:52:52;;;;;;;6.53;0.63;;;;;;;;;;5020768;28;20040;-80
2022/08/21 08:55:27;;;;;;;1.45;0.50;;;37.10;36.20;;;;;;5022491;28;20033;-81
2022/08/21 08:57:55;;;;;;;6.57;0.50;;;;;;;;;;5022528;28;20132;-80
2022/08/21 09:00:22;;;;;;;0.40;0.20;;;;;;;;;;5017477;28;20021;-81
2022/08/21 09:02:50;;;;;;;3.38;0.95;;;;;;;;;;5029370;28;20021;-80
2022/08/21 09:05:44;;;;;;;0.65;0.50;;;37.80;34.40;;;;;;5027921;28;20116;-81
2022/08/21 09:08:30;;;;;;;3.70;0.55;;;;;;;;;;5023201;28;20043;-80
2022/08/21 09:11:25;;;;;;;1.23;0.30;;;37.70;33.90;;;;;;5019672;28;20025;-80
2022/08/21 09:14:16;;;;;;;0.47;0.30;;;37.20;44.80;;;;;;5026346;28;20026;-81
2022/08/21 09:17:29;;;;;;;1.25;0.50;;;37.80;33.90;;;;;;5021932;28;20400;-80
2022/08/21 09:19:57;;;;;;;3.35;0.50;;;;;;;;;;4954426;28;20039;-82
2022/08/21 09:22:30;;;;;;;2.75;0.47;;;;;;;;;;4949737;28;20043;-84
2022/08/21 09:25:01;;;;;;;4.55;0.50;;;;;;;;;;4949637;28;20035;-80
2022/08/21 09:27:29;;;;;;;0.40;0.30;;;36.10;35.20;;;;;;4949612;28;20055;-81
2022/08/21 09:29:57;;;;;;;2.85;0.65;;;;;;;;;;4965942;28;20047;-81
2022/08/21 09:32:34;;;;;;;1.73;0.40;;;;;;;;;;4968438;28;20640;-81
2022/08/21 09:35:00;;;;;;;4.20;2.40;;;;;;;;;;4966466;28;20400;-80
2022/08/21 09:37:28;;;;;;;0.73;0.40;;;36.50;34.50;;;;;;4968257;28;20043;-81
2022/08/21 09:39:58;;;;;;;2.10;0.50;;;;;;;;;;4969500;28;20035;-81
2022/08/21 09:42:26;;;;;;;4.05;0.28;;;;;;;;;;4949271;28;20636;-81
2022/08/21 09:45:25;;;;;;;1.98;0.43;;;35.10;36.40;;;;;;4968200;28;20044;-81
2022/08/21 09:47:51;;;;;;;0.73;0.57;;;;;;;;;;4965819;28;20473;-81
2022/08/21 09:50:28;;;;;;;2.40;0.53;;;35.10;36.60;;;;;;4968132;28;20110;-81
2022/08/21 09:52:58;;;;;;;0.82;0.30;;;35.50;35.70;;;;;;4968442;28;20023;-80
2022/08/21 09:58:34;;;;;;;0.82;0.38;;;34.40;36.40;;;;;;5029312;28;20426;-82
2022/08/21 10:01:02;;;;;;;3.70;0.40;;;33.80;38.10;;;;;;5029639;28;20022;-83
2022/08/21 10:03:28;;;;;;;2.08;0.68;;;;;;;;;;5029733;28;20022;-83
2022/08/21 10:06:05;;;;;;;0.82;0.47;;;32.90;39.10;;;;;;5023517;28;20022;-81
2022/08/21 10:08:33;;;;;;;0.80;0.32;;;33.30;39.40;;;;;;5027459;28;20053;-81
2022/08/21 10:11:09;;;;;;;2.60;0.60;;;32.30;40.20;;;;;;5029529;28;20018;-81
2022/08/21 10:14:07;;;;;;;1.20;0.43;;;31.40;41.90;;;;;;5029179;28;20021;-81
2022/08/21 10:16:44;;;;;;;5.75;0.65;;;32.10;41.30;;;;;;5029393;28;20025;-81
2022/08/21 10:19:28;;;;;;;1.67;0.30;;;33.30;40.30;;;;;;5022440;28;20049;-81
2022/08/21 10:22:29;;;;;;;0.68;0.30;;;34.00;39.70;;;;;;5028740;28;20098;-80
2022/08/21 10:25:16;;;;;;;0.77;0.43;;;;;;;;;;5006539;28;20034;-81
2022/08/21 10:27:49;;;;;;;4.13;1.15;;;35.60;36.70;;;;;;5006373;28;20022;-81
2022/08/21 10:30:24;;;;;;;6.00;0.70;;;35.20;35.50;;;;;;4986444;28;20068;-81
2022/08/21 10:32:57;;;;;;;2.00;0.25;;;;;;;;;;4987140;28;20026;-81
2022/08/21 10:35:30;;;;;;;2.50;0.40;;;34.70;36.20;;;;;;4986267;28;20053;-82
2022/08/21 10:37:56;;;;;;;4.43;0.30;;;;;;;;;;4986757;28;20045;-81
2022/08/21 10:40:29;;;;;;;1.05;0.43;;;32.80;37.70;;;;;;4986588;28;20034;-81
2022/08/21 10:43:20;;;;;;;1.02;0.50;;;32.50;38.60;;;;;;4986375;28;20531;-81
2022/08/21 10:46:02;;;;;;;1.00;0.40;;;32.20;38.90;;;;;;4980536;28;20035;-81
2022/08/21 10:48:39;;;;;;;3.70;0.80;;;32.10;39.30;;;;;;4984924;28;20695;-80
2022/08/21 10:51:30;;;;;;;1.75;0.90;;;32.80;39.70;;;;;;4970374;28;20079;-82
2022/08/21 10:53:58;;;;;;;0.93;0.82;;;33.10;38.20;;;;;;5002275;28;20027;-82
2022/08/21 10:56:29;;;;;;;7.22;0.80;;;32.70;38.40;;;;;;5001671;28;20602;-81
2022/08/21 10:58:58;;;;;;;4.10;0.85;;;;;;;;;;4985896;28;20209;-81
2022/08/21 11:01:38;;;;;;;0.98;0.40;;;32.30;38.80;;;;;;5006376;28;20045;-81
2022/08/21 11:04:21;;;;;;;0.95;0.40;;;32.40;40.70;;;;;;5021468;28;20510;-80
2022/08/21 11:06:55;;;;;;;2.13;0.77;;;32.30;40.80;;;;;;5026122;28;20053;-80
2022/08/21 11:09:25;;;;;;;1.70;0.80;;;31.80;39.90;;;;;;5017959;28;20107;-80
2022/08/21 11:11:57;;;;;;;2.58;0.70;;;31.70;41.10;;;;;;5026172;28;20116;-81
2022/08/21 11:14:42;;;;;;;1.67;0.50;;;;;;;;;;5025436;28;20060;-82
2022/08/21 11:17:09;;;;;;;1.70;0.93;;;;;;;;;;5028059;28;20033;-81
2022/08/21 11:19:44;;;;;;;0.57;0.38;;;31.80;40.60;;;;;;5027653;28;20514;-80
2022/08/21 11:22:10;;;;;;;4.43;0.32;;;;;;;;;;5022275;28;20037;-82
2022/08/21 11:24:36;;;;;;;6.45;1.00;;;;;;;;;;5018689;28;20022;-81
2022/08/21 11:27:02;;;;;;;0.88;0.73;;;;;;;;;;5023450;28;20431;-81
2022/08/21 11:29:36;;;;;;;3.72;0.65;;;32.40;38.90;;;;;;5026109;28;20148;-81
2022/08/21 11:32:02;;;;;;;1.45;0.40;;;;;;;;;;5024626;28;20021;-81
2022/08/21 11:34:42;;;;;;;1.73;0.60;;;32.40;37.10;;;;;;5025138;28;20036;-82
2022/08/21 11:37:10;;;;;;;1.23;0.47;;;;;;;;;;5021778;28;20029;-81
2022/08/21 11:39:45;;;;;;;1.55;0.40;;;;;;;;;;5025342;28;20025;-81
2022/08/21 11:42:19;;;;;;;2.10;0.47;;;;;;;;;;5025483;28;20034;-81
2022/08/21 11:44:48;;;;;;;1.15;0.30;;;;;;;;;;5024278;28;20385;-82
2022/08/21 11:47:26;;;;;;;2.47;0.47;;;;;;;;;;5020877;28;20105;-81
2022/08/21 11:49:55;;;;;;;0.98;0.40;;;;;;;;;;5007220;28;20402;-81
2022/08/21 11:52:27;;;;;;;3.50;0.50;;;;;;;;;;5025718;28;20022;-82
2022/08/21 11:55:15;;;;;;;2.22;0.60;;;31.80;39.50;;;;;;5024636;28;20022;-82
2022/08/21 11:57:43;;;;;;;2.40;0.77;;;;;;;;;;5019349;28;20120;-81
2022/08/21 12:00:20;;;;;;;4.03;0.57;;;;;;;;;;5024229;28;20049;-81
2022/08/21 12:02:48;;;;;;;1.80;0.70;;;;;;;;;;5021145;28;20033;-81
2022/08/21 12:05:34;;;;;;;4.32;0.80;;;31.50;37.40;;;;;;5024632;28;20032;-81
2022/08/21 12:08:09;;;;;;;0.50;0.30;;;31.90;44.00;;;;;;5019395;28;20047;-81
2022/08/21 12:10:42;;;;;;;3.45;0.90;;;31.60;38.20;;;;;;5024624;28;20033;-81
2022/08/21 12:13:22;;;;;;;1.20;0.60;;;31.40;37.70;;;;;;5026418;28;20053;-81
2022/08/21 12:15:48;;;;;;;1.48;0.90;;;;;;;;;;5022819;28;20890;-81
2022/08/21 12:18:22;;;;;;;2.03;0.73;;;;;;;;;;5022182;28;20037;-81
2022/08/21 12:20:57;;;;;;;2.72;0.60;;;;;;;;;;5025773;28;20032;-81
2022/08/21 12:23:33;;;;;;;3.63;0.60;;;30.90;37.40;;;;;;5024651;28;20064;-81
2022/08/21 12:26:01;;;;;;;1.15;0.57;;;;;;;;;;5021448;28;20022;-80
2022/08/21 12:28:28;;;;;;;2.75;0.77;;;30.90;39.00;;;;;;5023494;28;20059;-81
2022/08/21 12:30:54;;;;;;;1.73;0.73;;;;;;;;;;5007271;28;20025;-81
2022/08/21 12:33:22;;;;;;;1.75;0.57;;;;;;;;;;5007472;28;20504;-81
2022/08/21 12:35:50;;;;;;;1.15;0.57;;;;;;;;;;5022252;28;20841;-82
2022/08/21 12:38:16;;;;;;;11.85;1.35;;;;;;;;;;5021361;28;20034;-81
2022/08/21 12:40:44;;;;;;;0.55;0.20;;;;;;;;;;5025335;28;20079;-81
2022/08/21 12:43:16;;;;;;;1.08;0.40;;;;;;;;;;5024573;28;20030;-81
2022/08/21 12:45:46;;;;;;;2.17;0.57;;;;;;;;;;5024091;28;20033;-81
2022/08/21 12:48:25;;;;;;;3.05;0.80;;;30.30;39.40;;;;;;5025400;28;20202;-81
2022/08/21 12:51:00;;;;;;;3.45;1.15;;;30.50;40.00;;;;;;5010782;28;20033;-81
2022/08/21 12:53:49;;;;;;;2.38;0.57;;;30.50;40.50;;;;;;5027858;28;20033;-81
2022/08/21 12:56:16;;;;;;;3.95;0.55;;;;;;;;;;5022037;28;20041;-82
2022/08/21 12:58:49;;;;;;;1.25;0.73;;;30.20;39.50;;;;;;5027256;28;20034;-81
2022/08/21 13:01:25;;;;;;;3.78;0.80;;;30.30;39.60;;;;;;5022892;28;20082;-81
2022/08/21 13:03:53;;;;;;;2.07;0.60;;;;;;;;;;5028292;28;20037;-81
2022/08/21 13:06:20;;;;;;;5.03;1.27;;;;;;;;;;5019558;28;20558;-81
2022/08/21 13:08:50;;;;;;;1.05;0.80;;;29.60;40.60;;;;;;5028184;28;20524;-81
2022/08/21 13:11:19;;;;;;;4.47;1.30;;;;;;;;;;5028088;28;20144;-82
2022/08/21 13:13:50;;;;;;;2.55;0.60;;;29.90;42.60;;;;;;5028475;28;20048;-82
2022/08/21 13:16:27;;;;;;;4.43;0.68;;;30.00;40.30;;;;;;5015156;28;20115;-81
2022/08/21 13:19:05;;;;;;;1.90;0.75;;;30.00;40.30;;;;;;5028396;28;20047;-82
2022/08/21 13:21:35;;;;;;;1.98;0.65;;;;;;;;;;5027785;28;20082;-82
2022/08/21 13:24:14;;;;;;;2.03;0.88;;;;;;;;;;5028542;28;20108;-81
2022/08/21 13:26:40;;;;;;;1.23;0.60;;;;;;;;;;5020067;28;20021;-81
2022/08/21 13:29:11;;;;;;;3.65;1.10;;;29.80;40.80;;;;;;5028410;28;20601;-81
2022/08/21 13:31:38;;;;;;;1.38;0.77;;;30.00;41.10;;;;;;5027314;28;20583;-81
2022/08/21 13:34:07;;;;;;;5.18;0.70;;;;;;;;;;5028566;28;20477;-81
2022/08/21 13:36:35;;;;;;;2.08;0.70;;;;;;;;;;5020807;28;20049;-82
2022/08/21 13:39:06;;;;;;;8.15;1.05;;;30.30;42.70;;;;;;5027399;28;20132;-81
2022/08/21 13:41:34;;;;;;;5.13;0.95;;;;;;;;;;5027947;28;20061;-81
2022/08/21 13:44:13;;;;;;;3.38;0.68;;;30.40;40.60;;;;;;5027993;28;20048;-82
2022/08/21 13:46:39;;;;;;;4.43;0.80;;;;;;;;;;5020209;28;20843;-81
2022/08/21 13:49:06;;;;;;;1.70;1.30;;;30.30;41.80;;;;;;5027956;28;20022;-82
2022/08/21 13:51:32;;;;;;;;;;;;;;;;;;5026854;28;20038;-81
2022/08/21 13:53:59;;;;;;;2.80;1.03;;;;;;;;;;5027105;28;19905;-81
2022/08/21 13:56:28;;;;;;;1.20;0.47;;;;;;;;;;5021234;28;20039;-81
2022/08/21 13:58:55;;;;;;;3.28;0.88;;;29.70;42.50;;;;;;5027488;28;20037;-81
2022/08/21 14:01:39;;;;;;;2.45;0.70;;;29.60;42.30;;;;;;5027707;28;20433;-82
2022/08/21 14:04:33;;;;;;;3.88;1.05;;;29.40;42.20;;;;;;5024836;28;20021;-81
2022/08/21 14:07:00;;;;;;;12.55;2.03;;;;;;;;;;5014276;28;20513;-81
2022/08/21 14:09:31;;;;;;;3.90;1.10;;;29.50;42.10;;;;;;5032261;28;20581;-81
2022/08/21 14:11:58;;;;;;;4.25;0.98;;;;;;;;;;5027326;28;20279;-82
2022/08/21 14:14:24;;;;;;;;;;;;;;;;;;5028125;28;20029;-82
2022/08/21 14:16:55;;;;;;;2.60;0.60;;;;;;;;;;5020952;28;19905;-82
2022/08/21 14:19:21;;;;;;;1.48;0.65;;;;;;;;;;5027870;28;20395;-81
2022/08/21 14:21:47;;;;;;;3.25;0.90;;;;;;;;;;5027188;28;20104;-82
2022/08/21 14:24:29;;;;;;;2.33;0.65;;;29.30;42.90;;;;;;5026685;28;20041;-82
2022/08/21 14:27:06;;;;;;;1.45;0.82;;;29.00;42.30;;;;;;5021525;28;20442;-81